Time;durP1;ratioP1;P1;durP2;ratioP2;P2;SDS_P1;SDS_P2;PMS_P1;PMS_P2;Temp;Humidity;BMP_temperature;BMP_pressure;BME280_temperature;BME280_humidity;BME280_pressure;Samples;Min_cycle;Max_cycle;Signal;HPM_P1;HPM_P2
2022/05/17 00:02:07;;;;;;;9.95;4.30;;;15.60;99.90;;;;;;5016897;28;20099;-65
2022/05/17 00:04:33;;;;;;;14.73;3.58;;;15.50;99.90;;;;;;5020717;28;20245;-66
2022/05/17 00:06:59;;;;;;;;;;;15.50;99.90;;;;;;5020871;28;20115;-65
2022/05/17 00:09:25;;;;;;;12.82;4.53;;;15.50;99.90;;;;;;5011861;28;20498;-65
2022/05/17 00:11:51;;;;;;;15.38;4.30;;;15.40;99.90;;;;;;5024608;28;20128;-65
2022/05/17 00:14:18;;;;;;;13.90;4.90;;;15.40;99.90;;;;;;5016012;28;20107;-65
2022/05/17 00:16:44;;;;;;;17.58;5.28;;;15.40;99.90;;;;;;5019286;28;20490;-66
2022/05/17 00:19:11;;;;;;;11.10;5.00;;;15.40;99.90;;;;;;5027073;28;20045;-65
2022/05/17 00:21:38;;;;;;;12.85;4.45;;;15.40;99.90;;;;;;5013238;28;20037;-66
2022/05/17 00:24:05;;;;;;;12.57;4.55;;;15.40;99.90;;;;;;5004784;28;20048;-66
2022/05/17 00:26:34;;;;;;;9.63;4.47;;;15.40;99.90;;;;;;5023321;28;20697;-66
2022/05/17 00:29:00;;;;;;;14.65;5.22;;;15.30;99.90;;;;;;5009913;28;20037;-66
2022/05/17 00:31:26;;;;;;;;;;;15.30;99.90;;;;;;5024911;28;20554;-66
2022/05/17 00:33:53;;;;;;;14.38;5.38;;;15.30;99.90;;;;;;5015545;28;20027;-66
2022/05/17 00:36:19;;;;;;;10.98;5.18;;;15.30;99.90;;;;;;5009158;28;20160;-66
2022/05/17 00:38:45;;;;;;;17.98;5.03;;;15.30;99.90;;;;;;4998049;28;20132;-66
2022/05/17 00:41:11;;;;;;;15.38;4.70;;;15.30;99.90;;;;;;5019937;28;20410;-66
2022/05/17 00:46:31;;;;;;;16.38;5.00;;;15.20;99.90;;;;;;5012066;28;20386;-65
2022/05/17 00:48:58;;;;;;;14.93;5.28;;;15.20;99.90;;;;;;5017827;28;20052;-66
2022/05/17 00:51:27;;;;;;;13.05;4.47;;;15.20;99.90;;;;;;5024671;28;20087;-65
2022/05/17 00:53:58;;;;;;;10.25;3.92;;;15.20;99.90;;;;;;5019924;28;20048;-66
2022/05/17 00:56:25;;;;;;;14.68;5.22;;;15.20;99.90;;;;;;5023668;28;20106;-65
2022/05/17 00:58:54;;;;;;;10.05;4.72;;;15.10;99.90;;;;;;5022763;28;20501;-66
2022/05/17 01:01:26;;;;;;;12.55;3.85;;;15.10;99.90;;;;;;5015837;28;20048;-66
2022/05/17 01:04:06;;;;;;;8.77;4.15;;;15.10;99.90;;;;;;5028170;28;20037;-66
2022/05/17 01:06:40;;;;;;;15.43;5.47;;;15.10;99.90;;;;;;5019335;28;20124;-66
2022/05/17 01:09:05;;;;;;;8.65;3.92;;;15.10;99.90;;;;;;5018092;28;20049;-66
2022/05/17 01:11:31;;;;;;;11.93;3.88;;;15.10;99.90;;;;;;5027533;28;20189;-65
2022/05/17 01:16:41;;;;;;;12.38;4.07;;;15.10;99.90;;;;;;5010115;28;20091;-65
2022/05/17 01:19:09;;;;;;;13.18;3.92;;;15.10;99.90;;;;;;5016290;28;20305;-66
2022/05/17 01:21:35;;;;;;;8.63;3.53;;;15.10;99.90;;;;;;5020220;28;20114;-66
2022/05/17 01:24:01;;;;;;;11.45;4.53;;;15.10;99.90;;;;;;5000194;28;21127;-66
2022/05/17 01:26:31;;;;;;;13.05;4.53;;;15.10;99.90;;;;;;5012402;28;20049;-66
2022/05/17 01:28:56;;;;;;;12.25;4.25;;;15.10;99.90;;;;;;5003408;28;21221;-66
2022/05/17 01:31:22;;;;;;;11.73;3.63;;;15.00;99.90;;;;;;5015328;28;20051;-66
2022/05/17 01:33:48;;;;;;;11.60;4.50;;;15.00;99.90;;;;;;5020535;28;21720;-65
2022/05/17 01:36:21;;;;;;;17.40;5.63;;;15.00;99.90;;;;;;5015085;28;20132;-66
2022/05/17 01:38:51;;;;;;;9.50;3.75;;;15.00;99.90;;;;;;5014725;28;20113;-66
2022/05/17 01:41:18;;;;;;;11.35;4.82;;;15.00;99.90;;;;;;5009712;28;20405;-65
2022/05/17 01:43:44;;;;;;;8.57;3.78;;;15.00;99.90;;;;;;5021878;28;20045;-66
2022/05/17 01:46:10;;;;;;;12.40;3.78;;;15.00;99.90;;;;;;5013628;28;20517;-66
2022/05/17 01:48:38;;;;;;;11.50;3.80;;;15.00;99.90;;;;;;5015063;28;20041;-65
2022/05/17 01:51:08;;;;;;;11.65;3.88;;;15.00;99.90;;;;;;5019793;28;20191;-66
2022/05/17 01:53:34;;;;;;;8.80;3.40;;;14.90;99.90;;;;;;5019378;28;20090;-65
2022/05/17 01:56:04;;;;;;;8.60;3.67;;;14.90;99.90;;;;;;5003815;28;21227;-65
2022/05/17 01:58:30;;;;;;;8.75;3.25;;;14.90;99.90;;;;;;5009802;28;21517;-65
2022/05/17 02:00:55;;;;;;;7.97;4.20;;;14.90;99.90;;;;;;5024356;28;20063;-66
2022/05/17 02:03:25;;;;;;;6.90;3.22;;;14.90;99.90;;;;;;5014928;28;20032;-66
2022/05/17 02:05:51;;;;;;;11.30;3.75;;;14.90;99.90;;;;;;5011680;28;20120;-66
2022/05/17 02:08:17;;;;;;;;;;;14.90;99.90;;;;;;5016278;28;20083;-66
2022/05/17 02:10:42;;;;;;;8.73;3.33;;;14.90;99.90;;;;;;5022148;28;20431;-65
2022/05/17 02:13:08;;;;;;;7.50;2.77;;;14.90;99.90;;;;;;5016705;28;20034;-66
2022/05/17 02:15:34;;;;;;;9.53;3.43;;;14.90;99.90;;;;;;5016842;28;20037;-66
2022/05/17 02:17:59;;;;;;;6.07;3.35;;;14.80;99.90;;;;;;5016914;28;20038;-65
2022/05/17 02:20:25;;;;;;;10.95;3.20;;;14.90;99.90;;;;;;5024160;28;20045;-66
2022/05/17 02:22:50;;;;;;;12.73;3.83;;;14.90;99.90;;;;;;5014837;28;20042;-65
2022/05/17 02:25:17;;;;;;;9.85;3.83;;;14.80;99.90;;;;;;5018719;28;20409;-66
2022/05/17 02:27:42;;;;;;;8.00;2.85;;;14.80;99.90;;;;;;5017438;28;20450;-65
2022/05/17 02:30:11;;;;;;;13.55;3.40;;;14.80;99.90;;;;;;4995628;28;20061;-66
2022/05/17 02:32:37;;;;;;;10.85;3.50;;;14.80;99.90;;;;;;5017373;28;20489;-66
2022/05/17 02:35:05;;;;;;;9.65;3.33;;;14.80;99.90;;;;;;5009056;28;20111;-65
2022/05/17 02:37:31;;;;;;;9.07;3.20;;;14.70;99.90;;;;;;5024859;28;20043;-66
2022/05/17 02:39:56;;;;;;;9.65;3.72;;;14.70;99.90;;;;;;5019488;28;20128;-66
2022/05/17 02:42:24;;;;;;;14.63;3.47;;;14.70;99.90;;;;;;5019720;28;20197;-66
2022/05/17 02:44:50;;;;;;;7.85;3.20;;;14.70;99.90;;;;;;5014979;28;20301;-66
2022/05/17 02:47:16;;;;;;;15.73;4.22;;;14.70;99.90;;;;;;5014035;28;20041;-65
2022/05/17 02:49:44;;;;;;;8.00;3.25;;;14.70;99.90;;;;;;5020262;28;20068;-66
2022/05/17 02:52:11;;;;;;;9.95;3.53;;;14.70;99.90;;;;;;5019042;28;20353;-66
2022/05/17 02:54:37;;;;;;;10.93;3.78;;;14.70;99.90;;;;;;5014774;28;20078;-66
2022/05/17 02:57:05;;;;;;;6.32;3.45;;;14.60;99.90;;;;;;5018953;28;20036;-66
2022/05/17 02:59:30;;;;;;;9.02;4.22;;;14.60;99.90;;;;;;5022101;28;20069;-66
2022/05/17 03:01:56;;;;;;;7.63;3.25;;;14.60;99.90;;;;;;5020944;28;20462;-65
2022/05/17 03:04:22;;;;;;;9.40;3.83;;;14.60;99.90;;;;;;5020508;28;20728;-66
2022/05/17 03:06:48;;;;;;;10.10;3.60;;;14.50;99.90;;;;;;5012884;28;20049;-65
2022/05/17 03:09:13;;;;;;;8.50;3.75;;;14.50;99.90;;;;;;5025175;28;20355;-65
2022/05/17 03:11:42;;;;;;;12.45;4.03;;;14.50;99.90;;;;;;5020044;28;20033;-66
2022/05/17 03:14:08;;;;;;;9.88;3.60;;;14.50;99.90;;;;;;5022239;28;20079;-66
2022/05/17 03:16:34;;;;;;;9.52;3.40;;;14.50;99.90;;;;;;5022616;28;20048;-66
2022/05/17 03:19:00;;;;;;;7.90;3.27;;;14.50;99.90;;;;;;5012023;28;20113;-65
2022/05/17 03:21:26;;;;;;;8.02;3.92;;;14.40;99.90;;;;;;5029691;28;20462;-65
2022/05/17 03:23:52;;;;;;;15.25;4.15;;;14.40;99.90;;;;;;5001279;28;21586;-66
2022/05/17 03:26:18;;;;;;;10.93;3.50;;;14.40;99.90;;;;;;5013087;28;20051;-65
2022/05/17 03:28:44;;;;;;;11.68;3.70;;;14.40;99.90;;;;;;5010644;28;20046;-65
2022/05/17 03:31:10;;;;;;;10.18;3.50;;;14.40;99.90;;;;;;5016490;28;20030;-65
2022/05/17 03:33:37;;;;;;;10.00;3.80;;;14.40;99.90;;;;;;5020018;28;20033;-65
2022/05/17 03:36:04;;;;;;;18.75;3.90;;;14.30;99.90;;;;;;5010198;28;20139;-66
2022/05/17 03:38:30;;;;;;;8.20;3.35;;;14.30;99.90;;;;;;5017115;28;20034;-65
2022/05/17 03:40:58;;;;;;;9.77;3.17;;;14.30;99.90;;;;;;5027600;28;20048;-65
2022/05/17 03:43:24;;;;;;;10.38;4.05;;;14.40;99.90;;;;;;5019276;28;20385;-65
2022/05/17 03:45:50;;;;;;;10.02;3.53;;;14.30;99.90;;;;;;5016711;28;20046;-66
2022/05/17 03:48:16;;;;;;;11.60;3.70;;;14.30;99.90;;;;;;5015178;28;20041;-65
2022/05/17 03:50:42;;;;;;;9.75;3.63;;;14.40;99.90;;;;;;5022127;28;20324;-66
2022/05/17 03:53:08;;;;;;;7.50;3.30;;;14.30;99.90;;;;;;5026141;28;20037;-66
2022/05/17 03:55:33;;;;;;;9.40;3.17;;;14.40;99.90;;;;;;5016103;28;20373;-65
2022/05/17 03:57:59;;;;;;;9.82;3.33;;;14.30;99.90;;;;;;5015830;28;20037;-65
2022/05/17 04:00:25;;;;;;;12.07;3.40;;;14.30;99.90;;;;;;5022684;28;20117;-66
2022/05/17 04:02:50;;;;;;;11.43;3.50;;;14.30;99.90;;;;;;5019411;28;20425;-65
2022/05/17 04:05:17;;;;;;;9.60;4.20;;;14.30;99.90;;;;;;5009984;28;20037;-66
2022/05/17 04:07:43;;;;;;;15.05;3.53;;;14.30;99.90;;;;;;5014214;28;20041;-65
2022/05/17 04:10:11;;;;;;;10.32;3.45;;;14.30;99.90;;;;;;5023423;28;20443;-65
2022/05/17 04:12:37;;;;;;;8.48;3.45;;;14.40;99.90;;;;;;5025043;28;20132;-66
2022/05/17 04:15:04;;;;;;;11.27;4.15;;;14.40;99.90;;;;;;5020642;28;20125;-65
2022/05/17 04:17:30;;;;;;;16.40;3.78;;;14.40;99.90;;;;;;5022837;28;20044;-65
2022/05/17 04:19:57;;;;;;;11.10;4.68;;;14.40;99.90;;;;;;5021742;28;20109;-66
2022/05/17 04:22:23;;;;;;;8.82;3.08;;;14.50;99.90;;;;;;5020831;28;20049;-65
2022/05/17 04:24:53;;;;;;;7.43;3.63;;;14.40;99.90;;;;;;5004014;28;21355;-66
2022/05/17 04:27:19;;;;;;;8.90;3.72;;;14.40;99.90;;;;;;5015027;28;20978;-65
2022/05/17 04:29:44;;;;;;;9.20;3.07;;;14.40;99.90;;;;;;5020061;28;20072;-65
2022/05/17 04:32:10;;;;;;;7.77;3.50;;;14.50;99.90;;;;;;5021178;28;20048;-66
2022/05/17 04:34:36;;;;;;;8.60;3.33;;;14.50;99.90;;;;;;5023307;28;20042;-66
2022/05/17 04:37:02;;;;;;;7.68;3.08;;;14.50;99.90;;;;;;5008060;28;20304;-65
2022/05/17 04:39:28;;;;;;;8.70;3.72;;;14.50;99.90;;;;;;5020470;28;20045;-65
2022/05/17 04:41:53;;;;;;;9.30;3.93;;;14.50;99.90;;;;;;5010587;28;20042;-66
2022/05/17 04:44:19;;;;;;;11.77;3.10;;;14.50;99.90;;;;;;5020924;28;20857;-65
2022/05/17 04:46:45;;;;;;;10.20;3.25;;;14.50;99.90;;;;;;5019298;28;20045;-65
2022/05/17 04:49:10;;;;;;;9.50;3.00;;;14.50;99.90;;;;;;5016261;28;20025;-65
2022/05/17 04:51:36;;;;;;;14.02;3.22;;;14.50;99.90;;;;;;5031553;28;20083;-65
2022/05/17 04:54:02;;;;;;;10.85;3.30;;;14.60;99.90;;;;;;5024458;28;20057;-65
2022/05/17 04:56:28;;;;;;;8.07;3.22;;;14.60;99.90;;;;;;5014963;28;20041;-66
2022/05/17 04:58:53;;;;;;;6.47;2.80;;;14.60;99.90;;;;;;5027350;28;20114;-65
2022/05/17 05:01:21;;;;;;;7.63;2.75;;;14.60;99.90;;;;;;5008407;28;20048;-65
2022/05/17 05:03:46;;;;;;;10.05;4.00;;;14.60;99.90;;;;;;5023821;28;20060;-65
2022/05/17 05:06:12;;;;;;;10.05;3.08;;;14.70;99.90;;;;;;5008073;28;20432;-65
2022/05/17 05:08:38;;;;;;;7.50;3.47;;;14.70;99.90;;;;;;5021452;28;20507;-65
2022/05/17 05:11:03;;;;;;;7.23;3.80;;;14.70;99.90;;;;;;5023601;28;20041;-65
2022/05/17 05:13:29;;;;;;;11.70;2.90;;;14.80;99.90;;;;;;5021973;28;20875;-65
2022/05/17 05:15:55;;;;;;;8.60;3.70;;;14.70;99.90;;;;;;5012891;28;20034;-64
2022/05/17 05:18:21;;;;;;;12.05;3.38;;;14.90;99.90;;;;;;5021540;28;20033;-65
2022/05/17 05:20:47;;;;;;;12.85;3.53;;;14.90;99.90;;;;;;5023638;28;20033;-65
2022/05/17 05:23:13;;;;;;;7.07;3.70;;;15.00;99.90;;;;;;5005699;28;20045;-65
2022/05/17 05:25:39;;;;;;;11.27;2.85;;;15.10;99.90;;;;;;5002628;28;20757;-65
2022/05/17 05:28:06;;;;;;;12.38;3.42;;;15.10;99.90;;;;;;5011460;28;20056;-65
2022/05/17 05:30:32;;;;;;;9.00;2.70;;;15.20;99.90;;;;;;5018418;28;20056;-65
2022/05/17 05:32:58;;;;;;;14.27;3.15;;;15.20;99.90;;;;;;5016666;28;20042;-65
2022/05/17 05:35:27;;;;;;;10.13;4.07;;;15.30;99.90;;;;;;5004777;28;20343;-65
2022/05/17 05:37:54;;;;;;;8.68;3.40;;;15.30;99.90;;;;;;5005130;28;20104;-64
2022/05/17 05:40:20;;;;;;;9.07;3.08;;;15.40;99.90;;;;;;5019253;28;20478;-66
2022/05/17 05:42:48;;;;;;;7.25;2.72;;;15.50;99.90;;;;;;5020598;28;20045;-64
2022/05/17 05:45:18;;;;;;;9.90;3.03;;;15.50;99.90;;;;;;5018950;28;20463;-66
2022/05/17 05:47:43;;;;;;;9.98;2.53;;;15.60;99.90;;;;;;5024798;28;20063;-67
2022/05/17 05:50:09;;;;;;;13.85;2.42;;;15.60;99.90;;;;;;5013637;28;20042;-67
2022/05/17 05:52:35;;;;;;;6.30;3.33;;;15.60;99.90;;;;;;5014129;28;20041;-68
2022/05/17 05:55:01;;;;;;;11.18;2.95;;;15.70;99.90;;;;;;5020252;28;20037;-67
2022/05/17 05:57:28;;;;;;;7.72;3.05;;;15.70;99.90;;;;;;5017860;28;20042;-65
2022/05/17 05:59:54;;;;;;;10.18;2.67;;;15.70;99.90;;;;;;5013160;28;20530;-65
2022/05/17 06:02:20;;;;;;;5.40;2.25;;;15.70;99.90;;;;;;5019862;28;20041;-67
2022/05/17 06:04:46;;;;;;;10.43;2.70;;;15.70;99.90;;;;;;5004552;28;20033;-65
2022/05/17 06:07:11;;;;;;;8.00;2.90;;;15.80;99.90;;;;;;5015691;28;20045;-65
2022/05/17 06:09:37;;;;;;;8.83;2.80;;;15.80;99.90;;;;;;5024031;28;20268;-65
2022/05/17 06:12:03;;;;;;;12.13;3.25;;;15.80;99.90;;;;;;5024141;28;20304;-65
2022/05/17 06:14:29;;;;;;;9.70;2.88;;;15.70;99.90;;;;;;5023485;28;20567;-67
2022/05/17 06:16:55;;;;;;;10.80;2.72;;;15.80;99.90;;;;;;5014608;28;20115;-68
2022/05/17 06:19:23;;;;;;;8.38;3.33;;;15.80;99.90;;;;;;5017830;28;20042;-67
2022/05/17 06:21:50;;;;;;;8.00;3.40;;;15.80;99.90;;;;;;5017373;28;20298;-69
2022/05/17 06:24:16;;;;;;;13.32;3.95;;;15.80;99.90;;;;;;5001753;28;20120;-67
2022/05/17 06:26:42;;;;;;;;;;;15.80;99.90;;;;;;5007317;28;20053;-68
2022/05/17 06:29:08;;;;;;;10.20;2.50;;;15.80;99.90;;;;;;5015262;28;19917;-67
2022/05/17 06:31:34;;;;;;;8.07;3.08;;;15.90;99.90;;;;;;5017695;28;20049;-67
2022/05/17 06:33:59;;;;;;;8.32;3.05;;;15.90;99.90;;;;;;5019126;28;20065;-67
2022/05/17 06:36:25;;;;;;;8.68;3.05;;;15.90;99.90;;;;;;5012984;28;20168;-65
2022/05/17 06:38:50;;;;;;;3.90;2.50;;;16.00;99.90;;;;;;5017665;28;20286;-71
2022/05/17 06:41:16;;;;;;;9.63;2.90;;;16.00;99.90;;;;;;5013812;28;20403;-73
2022/05/17 06:43:42;;;;;;;10.30;2.83;;;16.10;99.90;;;;;;5015390;28;20037;-66
2022/05/17 06:46:08;;;;;;;10.27;3.17;;;16.10;99.90;;;;;;5021301;28;20509;-73
2022/05/17 06:48:33;;;;;;;10.35;3.03;;;16.20;99.90;;;;;;5006130;28;20076;-69
2022/05/17 06:51:07;;;;;;;12.48;3.13;;;16.20;99.90;;;;;;5013788;28;20100;-70
2022/05/17 06:53:33;;;;;;;13.10;3.80;;;16.30;99.90;;;;;;5019756;28;20098;-72
2022/05/17 06:55:59;;;;;;;10.63;3.20;;;16.40;99.90;;;;;;5018841;28;20403;-66
2022/05/17 06:58:28;;;;;;;;;;;16.30;99.90;;;;;;5010488;28;20038;-66
2022/05/17 07:00:53;;;;;;;11.57;2.95;;;16.40;99.90;;;;;;5007053;28;19925;-66
2022/05/17 07:03:19;;;;;;;10.52;3.50;;;16.40;99.90;;;;;;5015556;28;20509;-66
2022/05/17 07:05:45;;;;;;;12.07;4.35;;;16.50;99.90;;;;;;5018102;28;20084;-66
2022/05/17 07:08:10;;;;;;;8.98;2.78;;;16.50;99.90;;;;;;5015952;28;20366;-66
2022/05/17 07:13:20;;;;;;;9.00;3.25;;;16.60;99.90;;;;;;5023456;28;20390;-66
2022/05/17 07:15:48;;;;;;;12.48;3.58;;;16.60;99.90;;;;;;5027388;28;20040;-66
2022/05/17 07:18:19;;;;;;;13.65;3.88;;;16.60;99.90;;;;;;5020065;28;20051;-65
2022/05/17 07:20:45;;;;;;;6.53;3.00;;;16.70;99.90;;;;;;5025267;28;20619;-66
2022/05/17 07:23:12;;;;;;;8.95;3.88;;;16.70;99.90;;;;;;5008175;28;20045;-66
2022/05/17 07:25:42;;;;;;;9.52;3.20;;;16.80;99.90;;;;;;5025376;28;20124;-66
2022/05/17 07:28:17;;;;;;;10.90;2.90;;;16.80;99.90;;;;;;5006462;28;20034;-67
2022/05/17 07:30:43;;;;;;;9.00;3.45;;;16.90;99.90;;;;;;5015876;28;20455;-64
2022/05/17 07:33:08;;;;;;;12.25;3.28;;;16.90;99.90;;;;;;5015990;28;20051;-67
2022/05/17 07:35:34;;;;;;;8.35;3.20;;;17.00;99.90;;;;;;5020177;28;20037;-66
2022/05/17 07:38:01;;;;;;;7.10;2.40;;;17.00;99.90;;;;;;5010139;28;20137;-67
2022/05/17 07:40:27;;;;;;;6.40;2.60;;;17.10;99.90;;;;;;5025908;28;20825;-66
2022/05/17 07:42:54;;;;;;;10.70;2.90;;;17.10;99.90;;;;;;5015650;28;20045;-71
2022/05/17 07:45:20;;;;;;;11.25;2.80;;;17.20;99.90;;;;;;5007015;28;20050;-66
2022/05/17 07:47:46;;;;;;;11.32;2.88;;;17.30;99.90;;;;;;5013410;28;20048;-66
2022/05/17 07:50:12;;;;;;;7.25;2.63;;;17.30;99.90;;;;;;5011992;28;20390;-66
2022/05/17 07:52:37;;;;;;;8.82;3.03;;;17.40;99.90;;;;;;5019112;28;20088;-66
2022/05/17 07:55:04;;;;;;;9.95;2.58;;;17.40;99.90;;;;;;5021569;28;20038;-66
2022/05/17 07:57:30;;;;;;;5.15;2.72;;;17.50;99.90;;;;;;5016892;28;20045;-65
2022/05/17 07:59:55;;;;;;;6.68;2.67;;;17.60;99.90;;;;;;5030020;28;20048;-66
2022/05/17 08:02:21;;;;;;;9.73;2.95;;;17.70;99.90;;;;;;5028526;28;20120;-66
2022/05/17 08:04:47;;;;;;;6.57;3.03;;;17.70;99.90;;;;;;5023974;28;20041;-66
2022/05/17 08:07:13;;;;;;;6.57;3.22;;;17.80;99.90;;;;;;5017548;28;20088;-66
2022/05/17 08:09:39;;;;;;;8.25;2.42;;;17.80;99.90;;;;;;5025994;28;20053;-66
2022/05/17 08:12:07;;;;;;;8.10;2.72;;;17.90;99.90;;;;;;5022881;28;20510;-66
2022/05/17 08:14:37;;;;;;;13.45;3.35;;;18.00;99.90;;;;;;5026239;28;20374;-66
2022/05/17 08:17:04;;;;;;;13.48;4.00;;;18.00;99.90;;;;;;5012185;28;20418;-65
2022/05/17 08:19:30;;;;;;;6.28;3.00;;;18.00;99.90;;;;;;5015009;28;20038;-66
2022/05/17 08:21:56;;;;;;;7.07;3.00;;;18.10;99.90;;;;;;5014279;28;20390;-66
2022/05/17 08:24:22;;;;;;;15.50;2.95;;;18.10;99.90;;;;;;5017946;28;20052;-65
2022/05/17 08:29:31;;;;;;;7.07;2.75;;;18.30;99.90;;;;;;5025458;28;20494;-66
2022/05/17 08:34:42;;;;;;;14.05;3.28;;;18.40;99.90;;;;;;5011687;28;20057;-66
2022/05/17 08:37:08;;;;;;;11.38;3.00;;;18.40;99.90;;;;;;5003214;28;20514;-66
2022/05/17 08:39:33;;;;;;;7.43;2.70;;;18.50;99.90;;;;;;5020331;28;20036;-66
2022/05/17 08:42:08;;;;;;;8.63;2.25;;;18.50;99.90;;;;;;5024416;28;20048;-65
2022/05/17 08:44:48;;;;;;;6.22;2.08;;;18.50;99.90;;;;;;5025067;28;20368;-65
2022/05/17 08:47:25;;;;;;;12.18;2.90;;;18.60;99.90;;;;;;5032185;28;20041;-65
2022/05/17 08:49:58;;;;;;;9.38;3.38;;;18.70;99.90;;;;;;5018628;28;20053;-65
2022/05/17 08:52:26;;;;;;;9.18;2.80;;;18.80;99.90;;;;;;5013074;28;20046;-65
2022/05/17 08:55:36;;;;;;;9.63;2.60;;;18.80;99.90;;;;;;5009861;28;20037;-65
2022/05/17 08:58:07;;;;;;;5.50;2.58;;;18.90;99.90;;;;;;5006306;28;20388;-66
2022/05/17 09:00:40;;;;;;;6.57;1.88;;;19.00;99.90;;;;;;5016154;28;20394;-66
2022/05/17 09:03:22;;;;;;;11.80;2.60;;;19.10;99.90;;;;;;5039120;28;20065;-65
2022/05/17 09:05:57;;;;;;;7.28;2.25;;;19.20;99.90;;;;;;5027212;28;20060;-65
2022/05/17 09:08:32;;;;;;;7.25;2.00;;;19.20;99.90;;;;;;5010334;28;20041;-65
2022/05/17 09:11:17;;;;;;;9.38;2.38;;;19.30;99.90;;;;;;5021712;28;20044;-65
2022/05/17 09:13:45;;;;;;;6.82;2.08;;;19.40;99.90;;;;;;5018906;28;20072;-66
2022/05/17 09:16:12;;;;;;;4.78;1.33;;;19.50;99.90;;;;;;5020673;28;20033;-65
2022/05/17 09:18:39;;;;;;;6.15;1.88;;;19.50;99.90;;;;;;5026199;28;20033;-65
2022/05/17 09:21:21;;;;;;;7.10;1.92;;;19.60;99.90;;;;;;5030791;28;20060;-65
2022/05/17 09:23:46;;;;;;;7.90;2.10;;;19.60;99.90;;;;;;5016310;28;20180;-66
2022/05/17 09:26:18;;;;;;;6.35;2.00;;;19.60;99.90;;;;;;5015368;28;20521;-66
2022/05/17 09:28:51;;;;;;;4.75;1.50;;;19.60;99.90;;;;;;5012463;28;20049;-65
2022/05/17 09:31:23;;;;;;;5.95;1.70;;;19.60;99.90;;;;;;5008171;28;20041;-66
2022/05/17 09:33:49;;;;;;;6.43;1.88;;;19.70;99.90;;;;;;5019166;28;20127;-65
2022/05/17 09:36:22;;;;;;;6.13;1.70;;;19.70;99.90;;;;;;5014490;28;20026;-66
2022/05/17 09:38:50;;;;;;;6.38;1.88;;;19.80;99.90;;;;;;4996805;28;20069;-66
2022/05/17 09:41:19;;;;;;;9.13;2.65;;;19.80;99.90;;;;;;5013188;28;20206;-66
2022/05/17 09:44:00;;;;;;;6.72;1.83;;;19.90;99.90;;;;;;5007801;28;20216;-66
2022/05/17 09:46:41;;;;;;;8.35;1.75;;;20.10;99.90;;;;;;5010590;28;20120;-66
2022/05/17 09:55:30;;;;;;;9.57;1.40;;;20.40;99.90;;;;;;5006620;28;20107;-66
2022/05/17 09:58:05;;;;;;;6.00;1.60;;;20.50;99.90;;;;;;5006818;28;20049;-66
2022/05/17 10:00:34;;;;;;;5.07;1.43;;;20.60;99.90;;;;;;5022947;28;20068;-66
2022/05/17 10:03:04;;;;;;;7.55;1.33;;;20.60;99.90;;;;;;5017733;28;20048;-66
2022/05/17 10:05:44;;;;;;;3.80;1.35;;;20.70;99.90;;;;;;5024515;28;20064;-66
2022/05/17 10:08:13;;;;;;;8.18;1.35;;;20.80;99.90;;;;;;5019444;28;20294;-66
2022/05/17 10:10:59;;;;;;;3.50;1.05;;;20.90;99.90;;;;;;5021100;28;20041;-66
2022/05/17 10:13:35;;;;;;;4.10;1.48;;;21.00;99.90;;;;;;5010988;28;20045;-66
2022/05/17 10:16:06;;;;;;;5.13;1.40;;;21.10;99.90;;;;;;5034060;28;20329;-67
2022/05/17 10:18:53;;;;;;;5.57;1.23;;;21.20;99.90;;;;;;5005318;28;20479;-66
2022/05/17 10:21:42;;;;;;;5.18;1.48;;;21.30;99.90;;;;;;5023475;28;20034;-66
2022/05/17 10:24:58;;;;;;;6.07;1.35;;;21.30;99.90;;;;;;5011428;28;20108;-66
2022/05/17 10:27:48;;;;;;;3.80;1.10;;;21.40;99.90;;;;;;4989546;28;20334;-66
2022/05/17 10:30:44;;;;;;;5.65;1.40;;;21.50;99.90;;;;;;5021169;28;20673;-66
2022/05/17 10:33:30;;;;;;;4.45;1.30;;;21.50;93.80;;;;;;5001476;28;20046;-66
2022/05/17 10:36:01;;;;;;;8.93;1.80;;;21.50;99.90;;;;;;5011201;28;20121;-66
2022/05/17 10:38:38;;;;;;;5.13;1.30;;;21.50;99.90;;;;;;5020596;28;20276;-66
2022/05/17 10:41:09;;;;;;;5.00;1.05;;;21.50;99.90;;;;;;5004196;28;20314;-66
2022/05/17 10:43:38;;;;;;;7.05;1.60;;;21.60;99.90;;;;;;5008565;28;20494;-66
2022/05/17 10:46:04;;;;;;;2.88;0.80;;;21.80;97.10;;;;;;5005831;28;20048;-66
2022/05/17 10:48:53;;;;;;;;;;;21.80;99.90;;;;;;5032172;28;20036;-66
2022/05/17 10:51:25;;;;;;;10.13;1.15;;;21.90;97.70;;;;;;5018524;28;19916;-66
2022/05/17 10:54:28;;;;;;;5.55;1.02;;;21.90;96.40;;;;;;5010994;28;20048;-66
2022/05/17 10:57:03;;;;;;;5.47;1.30;;;22.00;96.80;;;;;;5018216;28;20065;-66
2022/05/17 11:00:01;;;;;;;5.95;1.67;;;22.10;93.20;;;;;;5008606;28;20418;-66
2022/05/17 11:03:06;;;;;;;5.80;0.90;;;22.20;84.80;;;;;;5011963;28;20450;-66
2022/05/17 11:05:54;;;;;;;7.15;1.42;;;22.10;89.80;;;;;;5020346;28;20459;-67
2022/05/17 11:08:38;;;;;;;6.63;1.70;;;22.10;83.20;;;;;;5009936;28;20042;-66
2022/05/17 11:11:16;;;;;;;5.75;1.65;;;22.10;80.40;;;;;;5005925;28;20439;-66
2022/05/17 11:13:50;;;;;;;5.30;1.17;;;22.10;90.30;;;;;;5014501;28;20033;-66
2022/05/17 11:16:27;;;;;;;5.05;1.00;;;22.10;92.40;;;;;;5009814;28;20041;-66
2022/05/17 11:19:19;;;;;;;4.45;1.30;;;22.10;86.70;;;;;;5027511;28;20091;-66
2022/05/17 11:22:08;;;;;;;3.42;1.15;;;22.20;73.60;;;;;;5008174;28;20049;-66
2022/05/17 11:25:11;;;;;;;5.60;1.17;;;22.20;86.40;;;;;;5011067;28;20141;-67
2022/05/17 11:27:57;;;;;;;3.45;0.95;;;22.30;90.60;;;;;;5008888;28;20446;-66
2022/05/17 11:30:35;;;;;;;2.83;1.00;;;22.40;91.80;;;;;;5010271;28;20060;-66
2022/05/17 11:33:28;;;;;;;5.95;1.08;;;22.60;91.60;;;;;;5040312;28;20797;-66
2022/05/17 11:36:01;;;;;;;3.03;1.42;;;22.60;86.70;;;;;;5007859;28;20038;-66
2022/05/17 11:38:32;;;;;;;3.80;0.70;;;22.70;90.40;;;;;;5030283;28;20059;-66
2022/05/17 11:41:01;;;;;;;3.53;0.63;;;22.80;89.80;;;;;;5011996;28;20100;-66
2022/05/17 11:43:45;;;;;;;3.92;0.60;;;23.00;88.40;;;;;;5016550;28;20056;-66
2022/05/17 11:46:45;;;;;;;7.35;1.10;;;23.10;80.00;;;;;;5005212;28;20401;-67
2022/05/17 11:49:10;;;;;;;2.95;0.63;;;23.30;68.20;;;;;;5009879;28;20037;-66
2022/05/17 11:51:38;;;;;;;;;;;23.40;70.80;;;;;;5025199;28;20045;-65
2022/05/17 11:54:08;;;;;;;3.88;0.88;;;23.30;60.60;;;;;;5021270;28;19931;-65
2022/05/17 11:56:36;;;;;;;3.80;1.05;;;23.30;67.30;;;;;;5016877;28;20092;-66
2022/05/17 11:59:08;;;;;;;2.85;0.90;;;23.50;67.30;;;;;;5025461;28;20029;-66
2022/05/17 12:01:35;;;;;;;2.85;0.68;;;23.50;60.20;;;;;;5023815;28;20374;-66
2022/05/17 12:04:20;;;;;;;4.95;0.77;;;23.50;58.50;;;;;;5028004;28;20495;-66
2022/05/17 12:06:48;;;;;;;3.40;0.77;;;23.50;54.50;;;;;;5019560;28;20380;-66
2022/05/17 12:09:23;;;;;;;2.38;0.77;;;23.60;57.00;;;;;;5023207;28;20041;-66
2022/05/17 12:12:14;;;;;;;3.38;0.60;;;23.70;56.80;;;;;;5007700;28;20337;-65
2022/05/17 12:14:45;;;;;;;2.03;0.65;;;23.80;52.70;;;;;;5012983;28;20084;-66
2022/05/17 12:17:20;;;;;;;3.00;0.68;;;23.90;50.70;;;;;;5011691;28;20185;-66
2022/05/17 12:20:12;;;;;;;3.40;0.82;;;23.90;53.10;;;;;;5021485;28;20116;-66
2022/05/17 12:22:52;;;;;;;4.28;0.52;;;24.00;52.60;;;;;;5012322;28;20344;-66
2022/05/17 12:25:28;;;;;;;2.58;0.60;;;24.10;52.10;;;;;;5003550;28;20045;-66
2022/05/17 12:27:54;;;;;;;3.33;0.80;;;24.20;53.10;;;;;;5027403;28;20135;-66
2022/05/17 12:33:18;;;;;;;2.45;0.70;;;24.30;52.40;;;;;;5016270;28;20510;-67
2022/05/17 12:35:44;;;;;;;;;;;24.30;52.80;;;;;;5017521;28;20141;-66
2022/05/17 12:43:46;;;;;;;2.97;0.80;;;24.40;53.90;;;;;;5013966;28;20050;-66
2022/05/17 12:46:21;;;;;;;4.50;0.90;;;24.60;54.70;;;;;;5012363;28;20073;-66
2022/05/17 12:48:49;;;;;;;4.43;1.13;;;24.70;54.70;;;;;;5016476;28;20033;-66
2022/05/17 12:51:18;;;;;;;5.35;1.23;;;24.80;54.30;;;;;;5016689;28;20129;-66
2022/05/17 12:53:55;;;;;;;7.18;1.27;;;24.90;53.90;;;;;;5018891;28;20065;-67
2022/05/17 12:56:20;;;;;;;;;;;24.90;53.40;;;;;;5028647;28;20040;-66
2022/05/17 12:58:50;;;;;;;2.20;1.00;;;25.00;52.70;;;;;;5024461;28;19924;-66
2022/05/17 13:01:30;;;;;;;1.85;0.52;;;25.10;54.60;;;;;;5020612;28;20048;-66
2022/05/17 13:03:58;;;;;;;2.72;0.75;;;25.10;53.40;;;;;;5021050;28;20041;-66
2022/05/17 13:06:39;;;;;;;4.95;1.20;;;25.20;54.00;;;;;;5018167;28;20055;-66
2022/05/17 13:09:06;;;;;;;1.63;0.63;;;25.30;50.80;;;;;;5028309;28;20068;-66
2022/05/17 13:11:32;;;;;;;6.43;0.90;;;25.30;51.90;;;;;;5001801;28;20406;-66
2022/05/17 13:14:10;;;;;;;5.45;0.80;;;25.30;52.30;;;;;;5021565;28;20057;-66
2022/05/17 13:16:43;;;;;;;3.72;0.77;;;25.40;52.80;;;;;;5032789;28;20083;-66
2022/05/17 13:19:13;;;;;;;3.28;0.50;;;25.40;50.40;;;;;;5029144;28;20033;-66
2022/05/17 13:21:51;;;;;;;5.55;0.82;;;25.40;51.40;;;;;;5026310;28;20041;-67
2022/05/17 13:24:34;;;;;;;4.80;0.65;;;25.40;50.40;;;;;;5018277;28;20165;-66
2022/05/17 13:27:33;;;;;;;2.30;0.60;;;25.40;50.70;;;;;;5022197;28;20045;-66
2022/05/17 13:30:08;;;;;;;3.38;0.55;;;25.50;50.50;;;;;;5024828;28;20041;-66